createdAt,value
2022-09-14T00:00:27.559Z,19.30
2022-09-14T00:05:29.996Z,21.85
2022-09-14T00:10:32.346Z,18.55
2022-09-14T00:15:38.967Z,19.02
2022-09-14T00:20:41.399Z,20.02
2022-09-14T00:25:43.804Z,19.35
2022-09-14T00:30:47.010Z,19.95
2022-09-14T00:35:49.384Z,20.17
2022-09-14T00:40:59.608Z,19.02
2022-09-14T00:46:02.658Z,20.02
2022-09-14T00:51:05.332Z,17.35
2022-09-14T00:56:07.899Z,18.30
2022-09-14T01:01:10.782Z,18.42
2022-09-14T01:06:37.307Z,19.10
2022-09-14T01:12:09.148Z,18.77
2022-09-14T01:17:21.662Z,18.40
2022-09-14T01:22:34.001Z,19.73
2022-09-14T01:27:41.840Z,19.00
2022-09-14T01:32:51.064Z,19.02
2022-09-14T01:38:10.172Z,18.65
2022-09-14T01:43:24.253Z,17.92
2022-09-14T01:48:38.253Z,18.27
2022-09-14T01:53:55.807Z,19.80
2022-09-14T01:59:11.414Z,18.90
2022-09-14T02:04:17.625Z,18.30
2022-09-14T02:09:22.822Z,18.27
2022-09-14T02:14:25.213Z,16.80
2022-09-14T02:19:33.600Z,20.63
2022-09-14T02:24:36.709Z,17.10
2022-09-14T02:29:39.497Z,17.85
2022-09-14T02:34:44.764Z,21.27
2022-09-14T02:40:14.190Z,17.95
2022-09-14T02:45:31.411Z,18.13
2022-09-14T02:50:52.420Z,17.75
2022-09-14T02:56:00.112Z,18.85
2022-09-14T03:01:03.941Z,16.20
2022-09-14T03:06:07.037Z,20.75
2022-09-14T03:11:09.618Z,17.58
2022-09-14T03:16:15.242Z,17.83
2022-09-14T03:21:18.083Z,17.33
2022-09-14T03:26:22.472Z,18.02
2022-09-14T03:31:26.015Z,17.35
2022-09-14T03:36:30.702Z,17.30
2022-09-14T03:41:33.130Z,16.38
2022-09-14T03:46:35.574Z,17.40
2022-09-14T03:51:38.043Z,17.05
2022-09-14T03:56:40.637Z,17.75
2022-09-14T04:01:43.485Z,17.27
2022-09-14T04:06:45.971Z,17.05
2022-09-14T04:11:48.426Z,16.27
2022-09-14T04:16:50.839Z,16.45
2022-09-14T04:21:53.357Z,16.63
2022-09-14T04:26:56.527Z,16.23
2022-09-14T04:31:59.108Z,15.90
2022-09-14T04:37:01.703Z,16.35
2022-09-14T04:42:04.656Z,15.43
2022-09-14T04:47:07.046Z,15.52
2022-09-14T04:52:09.469Z,15.77
2022-09-14T04:57:12.183Z,15.60
2022-09-14T05:02:14.797Z,15.93
2022-09-14T05:07:17.268Z,15.50
2022-09-14T05:12:20.358Z,15.75
2022-09-14T05:17:22.910Z,6.10
2022-09-14T05:22:25.357Z,9.98
2022-09-14T05:27:27.790Z,6.00
2022-09-14T05:32:30.229Z,6.33
2022-09-14T05:37:32.578Z,3.63
2022-09-14T05:42:35.747Z,5.45
2022-09-14T05:47:39.273Z,7.20
2022-09-14T05:52:42.026Z,4.22
2022-09-14T05:57:49.922Z,5.70
2022-09-14T06:02:54.292Z,3.70
2022-09-14T06:07:56.869Z,5.18
2022-09-14T06:13:00.117Z,4.30
2022-09-14T06:18:02.620Z,4.30
2022-09-14T06:23:05.161Z,3.75
2022-09-14T06:28:07.697Z,3.55
2022-09-14T06:33:10.453Z,2.90
2022-09-14T06:38:15.024Z,5.40
2022-09-14T06:43:17.619Z,3.78
2022-09-14T06:48:20.104Z,5.60
2022-09-14T06:53:23.443Z,2.83
2022-09-14T06:58:25.873Z,4.78
2022-09-14T07:03:28.285Z,10.93
2022-09-14T07:08:30.776Z,6.10
2022-09-14T07:13:33.657Z,49.00
2022-09-14T07:18:36.872Z,16.30
2022-09-14T07:23:41.906Z,32.10
2022-09-14T07:28:48.277Z,26.23
2022-09-14T07:33:55.456Z,35.88
2022-09-14T07:38:57.989Z,41.53
2022-09-14T07:44:02.317Z,31.17
2022-09-14T07:49:06.124Z,19.25
2022-09-14T07:54:11.712Z,24.88
2022-09-14T07:59:34.952Z,30.02
2022-09-14T08:04:39.457Z,14.15
2022-09-14T08:09:41.911Z,12.98
2022-09-14T08:14:44.450Z,27.50
2022-09-14T08:19:46.872Z,18.23
2022-09-14T08:24:49.153Z,16.00
2022-09-14T08:29:51.474Z,19.15
2022-09-14T08:34:56.799Z,17.38
2022-09-14T08:39:59.297Z,24.52
2022-09-14T08:45:09.558Z,16.67
2022-09-14T08:50:18.707Z,15.07
2022-09-14T08:55:41.432Z,12.98
2022-09-14T09:00:58.150Z,11.18
2022-09-14T09:06:17.760Z,6.20
2022-09-14T09:11:22.787Z,12.55
2022-09-14T09:16:28.505Z,9.27
2022-09-14T09:21:43.720Z,10.27
2022-09-14T09:26:46.359Z,8.57
2022-09-14T09:31:59.191Z,15.38
2022-09-14T09:37:23.887Z,8.05
2022-09-14T09:42:28.392Z,6.97
2022-09-14T09:47:38.180Z,9.80
2022-09-14T09:53:04.543Z,13.65
2022-09-14T09:58:25.502Z,9.88
2022-09-14T10:03:38.928Z,12.95
2022-09-14T10:08:47.669Z,12.40
2022-09-14T10:13:50.783Z,12.40
2022-09-14T10:18:54.326Z,7.47
2022-09-14T10:24:16.319Z,7.97
2022-09-14T10:29:38.271Z,8.07
2022-09-14T10:34:40.755Z,6.38
2022-09-14T10:40:00.591Z,6.35
2022-09-14T10:46:00.632Z,11.40
2022-09-14T10:51:30.086Z,8.80
2022-09-14T10:56:59.770Z,7.88
2022-09-14T11:02:33.584Z,52.15
2022-09-14T11:07:58.794Z,31.08
2022-09-14T11:13:21.443Z,68.97
2022-09-14T11:18:26.916Z,27.10
2022-09-14T11:23:57.044Z,13.18
2022-09-14T11:29:12.175Z,43.05
2022-09-14T11:34:22.312Z,63.60
2022-09-14T11:39:38.426Z,39.53
2022-09-14T11:44:44.756Z,38.40
2022-09-14T11:50:06.829Z,27.25
2022-09-14T11:55:15.422Z,28.02
2022-09-14T12:00:25.214Z,19.20
2022-09-14T12:05:31.879Z,31.60
2022-09-14T12:11:04.729Z,20.65
2022-09-14T12:16:09.102Z,14.18
2022-09-14T12:21:25.794Z,18.83
2022-09-14T12:26:32.044Z,20.23
2022-09-14T12:31:55.060Z,10.35
2022-09-14T12:37:00.755Z,23.52
2022-09-14T12:42:27.713Z,19.35
2022-09-14T12:47:38.550Z,14.70
2022-09-14T12:53:07.527Z,12.55
2022-09-14T12:58:23.047Z,12.60
2022-09-14T13:03:43.780Z,11.48
2022-09-14T13:08:56.398Z,8.13
2022-09-14T13:14:00.529Z,5.68
2022-09-14T13:19:07.978Z,8.10
2022-09-14T13:24:35.908Z,5.90
2022-09-14T13:29:38.641Z,3.58
2022-09-14T13:34:41.115Z,1.55
2022-09-14T13:39:51.088Z,5.78
2022-09-14T13:44:53.692Z,5.40
2022-09-14T13:49:56.743Z,3.60
2022-09-14T13:55:08.816Z,7.20
2022-09-14T14:00:14.472Z,2.67
2022-09-14T14:05:21.356Z,6.55
2022-09-14T14:10:29.570Z,8.13
2022-09-14T14:15:39.325Z,24.00
2022-09-14T14:20:41.985Z,20.60
2022-09-14T14:25:47.711Z,14.07
2022-09-14T14:30:50.671Z,7.32
2022-09-14T14:35:56.362Z,13.60
2022-09-14T14:40:58.973Z,26.23
2022-09-14T14:46:02.286Z,9.93
2022-09-14T14:51:05.575Z,19.02
2022-09-14T14:56:09.826Z,13.23
2022-09-14T15:01:16.776Z,12.93
2022-09-14T15:06:23.157Z,4.97
2022-09-14T15:11:25.927Z,3.30
2022-09-14T15:16:28.516Z,8.52
2022-09-14T15:21:33.870Z,11.23
2022-09-14T15:26:37.239Z,7.30
2022-09-14T15:31:40.819Z,6.20
2022-09-14T15:36:50.380Z,3.95
2022-09-14T15:41:56.156Z,9.82
2022-09-14T15:46:59.489Z,5.97
2022-09-14T15:52:02.240Z,8.48
2022-09-14T15:57:06.617Z,3.67
2022-09-14T16:02:12.096Z,9.30
2022-09-14T16:07:14.960Z,6.15
2022-09-14T16:12:17.488Z,6.30
2022-09-14T16:17:20.248Z,4.93
2022-09-14T16:22:23.170Z,6.18
2022-09-14T16:27:26.920Z,5.13
2022-09-14T16:32:29.477Z,5.28
2022-09-14T16:37:32.187Z,4.15
2022-09-14T16:42:34.565Z,6.60
2022-09-14T16:47:37.096Z,6.20
2022-09-14T16:52:39.752Z,7.47
2022-09-14T16:57:42.191Z,4.85
2022-09-14T17:02:44.927Z,5.22
2022-09-14T17:07:48.286Z,5.97
2022-09-14T17:12:51.264Z,6.47
2022-09-14T17:17:54.028Z,9.60
2022-09-14T17:22:56.782Z,6.20
2022-09-14T17:27:59.386Z,5.03
2022-09-14T17:33:02.239Z,5.80
2022-09-14T17:38:05.037Z,21.60
2022-09-14T17:43:07.680Z,5.93
2022-09-14T17:48:11.359Z,9.80
2022-09-14T17:53:14.619Z,6.67
2022-09-14T17:58:19.740Z,4.07
2022-09-14T18:03:22.832Z,4.10
2022-09-14T18:08:25.916Z,5.07
2022-09-14T18:13:28.693Z,4.18
2022-09-14T18:18:31.551Z,4.78
2022-09-14T18:23:34.959Z,5.13
2022-09-14T18:28:37.955Z,5.70
2022-09-14T18:33:40.748Z,9.88
2022-09-14T18:38:44.286Z,12.13
2022-09-14T18:43:50.122Z,5.18
2022-09-14T18:48:54.738Z,6.07
2022-09-14T18:53:59.632Z,8.75
2022-09-14T18:59:04.354Z,10.38
2022-09-14T19:04:09.117Z,6.15
2022-09-14T19:09:12.132Z,5.63
2022-09-14T19:14:15.845Z,20.23
2022-09-14T19:19:18.694Z,9.50
2022-09-14T19:24:21.305Z,9.13
2022-09-14T19:29:25.277Z,10.10
2022-09-14T19:34:28.767Z,10.65
2022-09-14T19:39:31.259Z,19.35
2022-09-14T19:44:33.942Z,12.13
2022-09-14T19:49:36.405Z,9.93
2022-09-14T19:54:38.806Z,13.23
2022-09-14T19:59:41.299Z,11.10
2022-09-14T20:04:43.647Z,17.23
2022-09-14T20:09:46.182Z,10.68
2022-09-14T20:14:48.501Z,12.15
2022-09-14T20:19:50.854Z,15.43
2022-09-14T20:24:53.660Z,16.00
2022-09-14T20:29:56.056Z,12.15
2022-09-14T20:34:58.425Z,8.68
2022-09-14T20:40:01.014Z,9.23
2022-09-14T20:45:03.875Z,8.87
2022-09-14T20:50:06.854Z,8.95
2022-09-14T20:55:09.826Z,10.30
2022-09-14T21:00:13.100Z,11.05
2022-09-14T21:05:15.930Z,10.07
2022-09-14T21:10:18.741Z,9.80
2022-09-14T21:15:21.438Z,12.53
2022-09-14T21:20:23.813Z,9.35
2022-09-14T21:25:26.206Z,13.87
2022-09-14T21:30:28.782Z,15.77
2022-09-14T21:35:33.643Z,10.40
2022-09-14T21:40:39.414Z,9.00
2022-09-14T21:45:45.744Z,10.60
2022-09-14T21:50:48.223Z,12.30
2022-09-14T21:55:50.737Z,10.43
2022-09-14T22:01:01.749Z,12.33
2022-09-14T22:06:07.351Z,11.23
2022-09-14T22:11:12.692Z,9.05
2022-09-14T22:16:17.104Z,8.25
2022-09-14T22:21:20.066Z,6.78
2022-09-14T22:26:23.675Z,10.98
2022-09-14T22:31:27.976Z,6.30
2022-09-14T22:36:30.370Z,6.50
2022-09-14T22:41:33.481Z,7.15
2022-09-14T22:46:36.380Z,9.15
2022-09-14T22:51:38.897Z,6.60
2022-09-14T22:56:41.374Z,7.05
2022-09-14T23:01:43.789Z,8.35
2022-09-14T23:06:47.771Z,9.00
2022-09-14T23:11:50.561Z,9.50
2022-09-14T23:16:53.035Z,6.07
2022-09-14T23:21:55.451Z,5.63
2022-09-14T23:26:57.865Z,5.25
2022-09-14T23:32:00.221Z,5.18
2022-09-14T23:37:02.553Z,4.70
2022-09-14T23:42:06.186Z,5.53
2022-09-14T23:47:08.624Z,5.20
2022-09-14T23:52:11.004Z,4.43
2022-09-14T23:57:13.394Z,5.43
